createdAt,value
2023-01-31T00:00:35.168Z,99039.36
2023-01-31T00:03:23.218Z,99029.77
2023-01-31T00:05:51.186Z,99033.30
2023-01-31T00:08:18.982Z,99033.44
2023-01-31T00:10:46.738Z,99036.12
2023-01-31T00:13:14.544Z,99039.02
2023-01-31T00:15:42.332Z,99042.41
2023-01-31T00:18:10.135Z,99045.59
2023-01-31T00:20:38.619Z,99043.13
2023-01-31T00:23:06.500Z,99047.87
2023-01-31T00:25:34.818Z,99045.41
2023-01-31T00:28:02.650Z,99048.82
2023-01-31T00:30:30.419Z,99054.42
2023-01-31T00:32:58.274Z,99053.16
2023-01-31T00:35:26.099Z,99058.45
2023-01-31T00:37:53.988Z,99055.71
2023-01-31T00:40:21.913Z,99065.80
2023-01-31T00:42:49.700Z,99066.49
2023-01-31T00:45:17.819Z,99068.55
2023-01-31T00:47:45.842Z,99076.50
2023-01-31T00:50:15.403Z,99077.48
2023-01-31T00:52:43.235Z,99077.23
2023-01-31T00:55:11.619Z,99077.70
2023-01-31T00:57:39.474Z,99078.16
2023-01-31T01:00:07.938Z,99079.01
2023-01-31T01:02:36.492Z,99076.33
2023-01-31T01:05:05.617Z,99080.98
2023-01-31T01:07:34.152Z,99079.10
2023-01-31T01:10:02.292Z,99082.06
2023-01-31T01:12:30.335Z,99085.65
2023-01-31T01:14:58.125Z,99085.94
2023-01-31T01:17:26.623Z,99093.27
2023-01-31T01:19:54.723Z,99100.75
2023-01-31T01:22:22.653Z,99104.66
2023-01-31T01:24:50.534Z,99107.02
2023-01-31T01:27:18.352Z,99105.89
2023-01-31T01:29:46.183Z,99107.98
2023-01-31T01:32:14.076Z,99108.10
2023-01-31T01:34:41.882Z,99113.37
2023-01-31T01:37:12.108Z,99119.35
2023-01-31T01:39:40.034Z,99120.75
2023-01-31T01:42:17.546Z,99123.12
2023-01-31T01:44:45.315Z,99119.20
2023-01-31T01:47:35.357Z,99120.14
2023-01-31T01:50:44.248Z,99122.14
2023-01-31T01:53:16.404Z,99129.35
2023-01-31T01:55:50.414Z,99136.09
2023-01-31T01:58:27.786Z,99139.92
2023-01-31T02:00:56.653Z,99144.20
2023-01-31T02:03:26.137Z,99148.13
2023-01-31T02:06:01.938Z,99156.08
2023-01-31T02:08:33.607Z,99162.52
2023-01-31T02:11:11.632Z,99166.21
2023-01-31T02:13:41.667Z,99171.79
2023-01-31T02:16:15.980Z,99172.12
2023-01-31T02:18:46.608Z,99176.39
2023-01-31T02:21:33.608Z,99178.77
2023-01-31T02:28:24.628Z,99191.70
2023-01-31T02:31:15.648Z,99194.06
2023-01-31T02:34:07.892Z,99196.89
2023-01-31T02:37:10.676Z,99202.68
2023-01-31T02:39:54.703Z,99202.54
2023-01-31T02:42:42.808Z,99209.52
2023-01-31T02:45:31.816Z,99212.71
2023-01-31T02:48:15.607Z,99218.50
2023-01-31T02:51:17.613Z,99216.78
2023-01-31T02:54:06.048Z,99223.09
2023-01-31T02:56:39.717Z,99223.39
2023-01-31T02:59:27.729Z,99225.13
2023-01-31T03:02:01.623Z,99233.36
2023-01-31T03:04:36.949Z,99237.13
2023-01-31T03:07:27.730Z,99243.44
2023-01-31T03:10:44.710Z,99250.73
2023-01-31T03:13:36.697Z,99252.75
2023-01-31T03:16:50.195Z,99262.70
2023-01-31T03:19:26.738Z,99265.31
2023-01-31T03:22:07.741Z,99266.68
2023-01-31T03:24:42.749Z,99266.16
2023-01-31T03:27:15.756Z,99274.09
2023-01-31T03:29:47.741Z,99273.04
2023-01-31T03:32:27.111Z,99284.17
2023-01-31T03:34:58.753Z,99290.15
2023-01-31T03:37:49.776Z,99298.48
2023-01-31T03:40:39.758Z,99292.27
2023-01-31T03:43:29.112Z,99292.09
2023-01-31T03:46:34.806Z,99304.27
2023-01-31T03:49:09.771Z,99301.39
2023-01-31T03:51:48.797Z,99300.92
2023-01-31T03:54:28.767Z,99301.84
2023-01-31T04:04:33.937Z,99308.60
2023-01-31T04:07:03.057Z,99310.20
2023-01-31T04:09:32.434Z,99310.72
2023-01-31T04:12:02.507Z,99314.85
2023-01-31T04:14:30.836Z,99319.66
2023-01-31T04:16:59.005Z,99320.10
2023-01-31T04:19:27.004Z,99323.77
2023-01-31T04:21:55.046Z,99323.18
2023-01-31T04:24:24.366Z,99326.97
2023-01-31T04:26:52.393Z,99330.45
2023-01-31T04:29:20.485Z,99338.52
2023-01-31T04:31:48.527Z,99334.27
2023-01-31T04:34:16.836Z,99348.79
2023-01-31T04:36:45.004Z,99356.46
2023-01-31T04:39:13.925Z,99355.77
2023-01-31T04:41:41.963Z,99357.31
2023-01-31T04:44:10.559Z,99364.54
2023-01-31T04:46:38.796Z,99365.76
2023-01-31T04:49:07.644Z,99370.58
2023-01-31T04:51:35.733Z,99367.55
2023-01-31T04:54:03.973Z,99373.23
2023-01-31T04:56:32.721Z,99375.52
2023-01-31T04:59:01.162Z,99384.92
2023-01-31T05:01:29.615Z,99382.88
2023-01-31T05:03:57.779Z,99383.59
2023-01-31T05:06:25.779Z,99388.56
2023-01-31T05:08:54.743Z,99388.09
2023-01-31T05:11:22.811Z,99395.06
2023-01-31T05:13:50.905Z,99403.61
2023-01-31T05:16:18.986Z,99408.21
2023-01-31T05:18:47.228Z,99419.65
2023-01-31T05:21:15.209Z,99424.98
2023-01-31T05:23:43.121Z,99429.11
2023-01-31T05:26:12.073Z,99433.88
2023-01-31T05:28:40.238Z,99437.80
2023-01-31T05:31:09.185Z,99440.55
2023-01-31T05:33:37.448Z,99442.92
2023-01-31T05:36:06.113Z,99448.66
2023-01-31T05:38:34.159Z,99449.16
2023-01-31T05:41:02.276Z,99445.56
2023-01-31T05:43:30.301Z,99456.17
2023-01-31T05:45:58.311Z,99454.27
2023-01-31T05:48:26.437Z,99463.67
2023-01-31T05:50:54.508Z,99467.27
2023-01-31T05:53:23.093Z,99470.52
2023-01-31T05:55:51.262Z,99483.21
2023-01-31T05:58:19.333Z,99485.62
2023-01-31T06:00:47.460Z,99493.31
2023-01-31T06:03:15.763Z,99496.42
2023-01-31T06:05:43.959Z,99499.00
2023-01-31T06:08:11.929Z,99507.86
2023-01-31T06:10:39.995Z,99513.30
2023-01-31T06:13:07.966Z,99514.64
2023-01-31T06:15:37.985Z,99522.52
2023-01-31T06:18:05.963Z,99533.63
2023-01-31T06:20:33.917Z,99533.98
2023-01-31T06:23:01.863Z,99544.91
2023-01-31T06:25:29.806Z,99546.27
2023-01-31T06:27:58.039Z,99555.81
2023-01-31T06:30:26.355Z,99559.23
2023-01-31T06:32:54.412Z,99561.58
2023-01-31T06:35:22.659Z,99563.80
2023-01-31T06:37:50.927Z,99568.06
2023-01-31T06:40:18.999Z,99574.55
2023-01-31T06:42:47.069Z,99579.84
2023-01-31T06:45:15.144Z,99578.46
2023-01-31T06:47:45.688Z,99585.44
2023-01-31T06:50:13.763Z,99587.98
2023-01-31T06:52:42.016Z,99589.67
2023-01-31T06:55:11.654Z,99592.60
2023-01-31T06:57:47.609Z,99593.30
2023-01-31T07:00:16.780Z,99598.44
2023-01-31T07:02:46.273Z,99599.45
2023-01-31T07:05:15.511Z,99600.10
2023-01-31T07:07:43.454Z,99603.81
2023-01-31T07:10:12.390Z,99607.70
2023-01-31T07:12:41.337Z,99608.52
2023-01-31T07:15:11.286Z,99616.17
2023-01-31T07:17:39.553Z,99618.50
2023-01-31T07:20:08.749Z,99622.10
2023-01-31T07:22:36.893Z,99626.39
2023-01-31T07:25:05.807Z,99625.17
2023-01-31T07:27:33.868Z,99626.90
2023-01-31T07:30:02.070Z,99639.21
2023-01-31T07:32:31.323Z,99639.89
2023-01-31T07:34:59.415Z,99646.54
2023-01-31T07:37:27.582Z,99646.50
2023-01-31T07:39:55.776Z,99648.02
2023-01-31T07:42:23.764Z,99653.97
2023-01-31T07:44:51.823Z,99654.92
2023-01-31T07:47:19.854Z,99664.63
2023-01-31T07:49:50.712Z,99667.33
2023-01-31T07:52:18.762Z,99670.70
2023-01-31T07:54:47.243Z,99677.48
2023-01-31T07:57:17.901Z,99683.59
2023-01-31T07:59:46.055Z,99687.90
2023-01-31T08:02:35.315Z,99688.56
2023-01-31T08:05:04.416Z,99692.79
2023-01-31T08:07:32.986Z,99696.77
2023-01-31T08:10:10.512Z,99700.86
2023-01-31T08:12:38.555Z,99704.70
2023-01-31T08:15:07.366Z,99698.64
2023-01-31T08:17:35.326Z,99705.38
2023-01-31T08:20:03.894Z,99713.89
2023-01-31T08:22:31.963Z,99715.77
2023-01-31T08:25:00.251Z,99719.52
2023-01-31T08:27:28.416Z,99721.73
2023-01-31T08:29:56.422Z,99720.18
2023-01-31T08:32:24.404Z,99723.10
2023-01-31T08:34:52.463Z,99721.72
2023-01-31T08:37:20.401Z,99729.01
2023-01-31T08:39:48.905Z,99735.59
2023-01-31T08:42:16.835Z,99739.80
2023-01-31T08:44:44.775Z,99739.09
2023-01-31T08:47:12.846Z,99738.54
2023-01-31T08:49:40.865Z,99741.38
2023-01-31T08:52:08.690Z,99744.73
2023-01-31T08:54:36.610Z,99746.39
2023-01-31T08:57:04.549Z,99748.21
2023-01-31T08:59:32.787Z,99755.80
2023-01-31T09:02:00.795Z,99750.90
2023-01-31T09:04:29.003Z,99750.63
2023-01-31T09:06:57.001Z,99753.27
2023-01-31T09:09:26.525Z,99751.54
2023-01-31T09:11:54.750Z,99753.71
2023-01-31T09:14:22.679Z,99751.16
2023-01-31T09:16:50.596Z,99761.63
2023-01-31T09:19:18.664Z,99758.83
2023-01-31T09:21:46.547Z,99762.04
2023-01-31T09:24:14.480Z,99760.88
2023-01-31T09:26:42.376Z,99764.27
2023-01-31T09:29:10.317Z,99763.89
2023-01-31T09:31:38.657Z,99766.30
2023-01-31T09:34:06.636Z,99767.63
2023-01-31T09:36:34.533Z,99768.16
2023-01-31T09:39:02.435Z,99776.13
2023-01-31T09:41:37.663Z,99775.92
2023-01-31T09:44:12.952Z,99773.65
2023-01-31T09:46:45.229Z,99778.46
2023-01-31T09:49:26.269Z,99778.35
2023-01-31T09:52:00.979Z,99781.75
2023-01-31T09:54:35.146Z,99778.13
2023-01-31T09:57:12.008Z,99782.09
2023-01-31T09:59:45.893Z,99781.02
2023-01-31T10:02:38.466Z,99784.95
2023-01-31T10:05:29.362Z,99793.80
2023-01-31T10:08:15.441Z,99794.92
2023-01-31T10:10:52.823Z,99795.30
2023-01-31T10:13:30.246Z,99795.05
2023-01-31T10:16:24.436Z,99796.32
2023-01-31T10:19:01.942Z,99797.21
2023-01-31T10:21:36.158Z,99792.96
2023-01-31T10:24:11.782Z,99794.88
2023-01-31T10:26:45.378Z,99797.46
2023-01-31T10:29:21.892Z,99790.44
2023-01-31T10:31:59.006Z,99794.25
2023-01-31T10:34:48.814Z,99784.02
2023-01-31T10:37:27.703Z,99783.44
2023-01-31T10:40:06.401Z,99776.98
2023-01-31T10:42:38.291Z,99772.73
2023-01-31T10:45:13.581Z,99771.59
2023-01-31T10:47:56.794Z,99779.23
2023-01-31T10:50:33.709Z,99776.55
2023-01-31T10:53:15.434Z,99776.41
2023-01-31T10:56:13.526Z,99780.16
2023-01-31T10:58:41.632Z,99782.01
2023-01-31T11:01:12.359Z,99787.02
2023-01-31T11:03:46.063Z,99784.48
2023-01-31T11:06:14.397Z,99790.13
2023-01-31T11:08:50.546Z,99785.64
2023-01-31T11:11:21.988Z,99786.38
2023-01-31T11:14:07.521Z,99787.90
2023-01-31T11:16:39.775Z,99784.46
2023-01-31T11:19:23.402Z,99785.28
2023-01-31T11:21:53.524Z,99786.84
2023-01-31T11:24:24.155Z,99790.07
2023-01-31T11:26:55.741Z,99789.75
2023-01-31T11:29:49.211Z,99784.78
2023-01-31T11:32:23.738Z,99785.42
2023-01-31T11:34:58.159Z,99780.98
2023-01-31T11:37:27.721Z,99784.75
2023-01-31T11:40:22.376Z,99789.22
2023-01-31T11:43:22.788Z,99789.70
2023-01-31T11:45:59.272Z,99788.08
2023-01-31T11:48:39.739Z,99788.21
2023-01-31T11:51:08.567Z,99781.02
2023-01-31T11:53:49.709Z,99784.91
2023-01-31T11:56:19.917Z,99787.66
2023-01-31T11:58:53.167Z,99784.88
2023-01-31T12:01:24.343Z,99782.24
2023-01-31T12:04:03.231Z,99776.71
2023-01-31T12:06:33.625Z,99776.09
2023-01-31T12:09:19.299Z,99767.67
2023-01-31T12:11:52.214Z,99771.11
2023-01-31T12:14:20.163Z,99768.58
2023-01-31T12:16:50.261Z,99765.62
2023-01-31T12:19:22.590Z,99761.29
2023-01-31T12:22:03.969Z,99764.40
2023-01-31T12:24:56.676Z,99762.80
2023-01-31T12:28:01.486Z,99765.27
2023-01-31T12:30:52.363Z,99762.27
2023-01-31T12:33:44.748Z,99760.27
2023-01-31T12:36:22.965Z,99759.11
2023-01-31T12:39:02.849Z,99749.48
2023-01-31T12:41:41.440Z,99749.42
2023-01-31T12:44:31.030Z,99749.16
2023-01-31T12:47:11.433Z,99754.34
2023-01-31T12:50:17.894Z,99746.58
2023-01-31T12:53:30.189Z,99741.09
2023-01-31T12:56:24.602Z,99739.98
2023-01-31T12:59:15.045Z,99742.80
2023-01-31T13:02:10.501Z,99746.67
2023-01-31T13:04:44.442Z,99755.56
2023-01-31T13:07:23.278Z,99760.91
2023-01-31T13:09:54.272Z,99760.30
2023-01-31T13:12:27.613Z,99752.65
2023-01-31T13:15:41.067Z,99752.82
2023-01-31T13:18:24.497Z,99754.91
2023-01-31T13:21:15.239Z,99748.63
2023-01-31T13:24:05.508Z,99738.98
2023-01-31T13:26:38.227Z,99738.36
2023-01-31T13:29:37.401Z,99733.09
2023-01-31T13:32:13.650Z,99739.23
2023-01-31T13:34:51.908Z,99740.41
2023-01-31T13:37:24.133Z,99736.81
2023-01-31T13:40:07.660Z,99737.94
2023-01-31T13:42:35.869Z,99737.31
2023-01-31T13:45:07.913Z,99739.06
2023-01-31T13:47:48.057Z,99739.00
2023-01-31T13:50:48.996Z,99742.45
2023-01-31T13:53:23.296Z,99743.80
2023-01-31T13:55:52.766Z,99746.33
2023-01-31T13:58:34.422Z,99749.55
2023-01-31T14:01:17.960Z,99751.39
2023-01-31T14:04:11.166Z,99755.02
2023-01-31T14:07:07.741Z,99753.37
2023-01-31T14:09:41.705Z,99757.90
2023-01-31T14:12:09.728Z,99760.25
2023-01-31T14:14:45.246Z,99758.12
2023-01-31T14:17:22.451Z,99748.77
2023-01-31T14:19:50.511Z,99749.45
2023-01-31T14:22:41.531Z,99745.00
2023-01-31T14:32:58.288Z,99741.09
2023-01-31T14:35:48.379Z,99734.17
2023-01-31T14:38:22.620Z,99737.66
2023-01-31T14:41:09.091Z,99740.92
2023-01-31T14:43:52.214Z,99735.77
2023-01-31T14:46:38.214Z,99738.58
2023-01-31T14:49:23.893Z,99736.08
2023-01-31T14:52:15.725Z,99740.40
2023-01-31T14:54:59.083Z,99744.76
2023-01-31T14:57:41.079Z,99747.39
2023-01-31T15:00:15.276Z,99741.30
2023-01-31T15:03:17.906Z,99740.86
2023-01-31T15:05:53.172Z,99741.44
2023-01-31T15:08:21.149Z,99734.82
2023-01-31T15:11:35.358Z,99736.58
2023-01-31T15:14:36.528Z,99724.98
2023-01-31T15:17:31.642Z,99723.48
2023-01-31T15:20:15.317Z,99727.45
2023-01-31T15:22:45.529Z,99726.45
2023-01-31T15:25:40.201Z,99725.48
2023-01-31T15:28:16.013Z,99727.39
2023-01-31T15:30:44.999Z,99726.58
2023-01-31T15:33:33.033Z,99722.50
2023-01-31T15:36:13.499Z,99727.81
2023-01-31T15:38:53.922Z,99724.61
2023-01-31T15:41:47.893Z,99725.52
2023-01-31T15:44:27.799Z,99724.55
2023-01-31T15:46:58.268Z,99725.45
2023-01-31T15:49:41.711Z,99727.89
2023-01-31T15:52:09.596Z,99725.54
2023-01-31T15:54:38.491Z,99721.30
2023-01-31T15:57:15.998Z,99719.11
2023-01-31T15:59:50.507Z,99720.17
2023-01-31T16:02:39.512Z,99718.98
2023-01-31T16:05:08.421Z,99719.19
2023-01-31T16:07:36.507Z,99716.14
2023-01-31T16:10:05.078Z,99714.45
2023-01-31T16:12:36.629Z,99723.16
2023-01-31T16:15:07.977Z,99720.45
2023-01-31T16:17:36.063Z,99722.34
2023-01-31T16:20:05.683Z,99724.59
2023-01-31T16:22:33.712Z,99724.96
2023-01-31T16:25:03.961Z,99726.87
2023-01-31T16:27:37.393Z,99720.60
2023-01-31T16:30:06.495Z,99720.65
2023-01-31T16:32:40.313Z,99715.39
2023-01-31T16:35:21.409Z,99713.89
2023-01-31T16:38:04.365Z,99705.55
2023-01-31T16:40:37.433Z,99703.02
2023-01-31T16:43:19.335Z,99704.05
2023-01-31T16:45:53.754Z,99703.21
2023-01-31T16:48:36.697Z,99704.42
2023-01-31T16:51:28.603Z,99699.33
2023-01-31T16:54:18.279Z,99696.08
2023-01-31T16:56:48.392Z,99687.73
2023-01-31T16:59:35.013Z,99685.83
2023-01-31T17:02:18.489Z,99684.48
2023-01-31T17:04:48.884Z,99685.34
2023-01-31T17:07:36.999Z,99680.73
2023-01-31T17:10:08.242Z,99680.58
2023-01-31T17:12:40.464Z,99673.08
2023-01-31T17:15:16.456Z,99669.96
2023-01-31T17:17:44.752Z,99667.40
2023-01-31T17:20:18.343Z,99666.02
2023-01-31T17:22:56.886Z,99664.98
2023-01-31T17:25:36.544Z,99660.71
2023-01-31T17:28:05.916Z,99655.94
2023-01-31T17:30:34.949Z,99653.19
2023-01-31T17:33:02.965Z,99647.89
2023-01-31T17:35:37.999Z,99643.80
2023-01-31T17:38:06.479Z,99643.80
2023-01-31T17:40:35.409Z,99639.52
2023-01-31T17:43:05.096Z,99640.40
2023-01-31T17:45:33.361Z,99635.98
2023-01-31T17:48:01.552Z,99632.57
2023-01-31T17:50:29.707Z,99624.55
2023-01-31T17:52:57.792Z,99619.47
2023-01-31T17:55:26.159Z,99616.23
2023-01-31T17:57:54.226Z,99605.32
2023-01-31T18:00:22.395Z,99603.95
2023-01-31T18:02:52.528Z,99601.41
2023-01-31T18:05:30.199Z,99591.16
2023-01-31T18:08:06.389Z,99589.30
2023-01-31T18:10:34.453Z,99586.39
2023-01-31T18:13:02.521Z,99581.25
2023-01-31T18:15:31.098Z,99582.06
2023-01-31T18:17:59.220Z,99575.37
2023-01-31T18:20:27.265Z,99570.73
2023-01-31T18:22:55.312Z,99568.98
2023-01-31T18:25:23.800Z,99561.45
2023-01-31T18:27:52.094Z,99561.60
2023-01-31T18:30:20.142Z,99562.97
2023-01-31T18:32:48.219Z,99558.20
2023-01-31T18:35:16.292Z,99554.62
2023-01-31T18:37:44.350Z,99552.40
2023-01-31T18:40:13.036Z,99543.51
2023-01-31T18:42:41.024Z,99538.73
2023-01-31T18:45:10.775Z,99532.30
2023-01-31T18:47:38.994Z,99526.19
2023-01-31T18:50:12.412Z,99522.59
2023-01-31T18:52:43.980Z,99515.21
2023-01-31T18:55:12.219Z,99512.10
2023-01-31T18:57:40.475Z,99513.21
2023-01-31T19:00:09.307Z,99511.98
2023-01-31T19:02:37.397Z,99504.45
2023-01-31T19:05:06.163Z,99502.21
2023-01-31T19:07:34.781Z,99498.48
2023-01-31T19:10:03.264Z,99499.33
2023-01-31T19:12:32.751Z,99492.50
2023-01-31T19:15:00.777Z,99489.25
2023-01-31T19:17:28.853Z,99489.61
2023-01-31T19:19:56.808Z,99489.58
2023-01-31T19:22:28.527Z,99483.91
2023-01-31T19:24:56.994Z,99481.52
2023-01-31T19:27:25.653Z,99471.59
2023-01-31T19:29:53.558Z,99476.52
2023-01-31T19:32:22.580Z,99468.81
2023-01-31T19:34:52.481Z,99461.95
2023-01-31T19:37:21.715Z,99456.27
2023-01-31T19:39:49.788Z,99453.86
2023-01-31T19:42:17.862Z,99450.59
2023-01-31T19:44:46.552Z,99444.75
2023-01-31T19:47:14.533Z,99438.26
2023-01-31T19:49:42.477Z,99435.20
2023-01-31T19:52:10.477Z,99427.88
2023-01-31T19:54:41.589Z,99422.10
2023-01-31T19:57:09.561Z,99413.33
2023-01-31T19:59:37.600Z,99408.23
2023-01-31T20:02:05.642Z,99403.11
2023-01-31T20:04:33.701Z,99396.45
2023-01-31T20:07:01.760Z,99396.80
2023-01-31T20:09:29.808Z,99388.09
2023-01-31T20:11:57.885Z,99378.36
2023-01-31T20:14:25.970Z,99378.02
2023-01-31T20:16:54.171Z,99373.92
2023-01-31T20:19:23.145Z,99367.10
2023-01-31T20:21:51.201Z,99362.64
2023-01-31T20:24:19.568Z,99356.80
2023-01-31T20:26:47.673Z,99350.26
2023-01-31T20:29:15.715Z,99343.57
2023-01-31T20:31:43.873Z,99338.73
2023-01-31T20:34:12.053Z,99328.80
2023-01-31T20:36:40.024Z,99326.26
2023-01-31T20:39:08.301Z,99317.05
2023-01-31T20:41:38.320Z,99315.18
2023-01-31T20:44:06.594Z,99310.38
2023-01-31T20:46:34.765Z,99307.15
2023-01-31T20:49:03.045Z,99304.95
2023-01-31T20:51:37.352Z,99304.95
2023-01-31T20:54:06.255Z,99306.45
2023-01-31T20:56:34.422Z,99300.15
2023-01-31T20:59:02.493Z,99296.57
2023-01-31T21:01:30.631Z,99293.35
2023-01-31T21:03:58.741Z,99287.70
2023-01-31T21:06:26.739Z,99284.30
2023-01-31T21:08:56.759Z,99281.44
2023-01-31T21:11:25.100Z,99275.12
2023-01-31T21:13:53.171Z,99272.38
2023-01-31T21:16:21.785Z,99268.06
2023-01-31T21:18:50.042Z,99261.50
2023-01-31T21:21:23.582Z,99256.52
2023-01-31T21:23:59.727Z,99247.81
2023-01-31T21:26:27.902Z,99236.85
2023-01-31T21:28:56.152Z,99236.64
2023-01-31T21:31:24.578Z,99233.69
2023-01-31T21:33:53.067Z,99225.84
2023-01-31T21:36:25.781Z,99220.41
2023-01-31T21:38:54.772Z,99217.83
2023-01-31T21:41:41.493Z,99215.14
2023-01-31T21:44:09.650Z,99215.83
2023-01-31T21:46:38.136Z,99206.73
2023-01-31T21:49:06.332Z,99203.61
2023-01-31T21:51:34.586Z,99198.27
2023-01-31T21:54:02.927Z,99195.33
2023-01-31T21:56:31.003Z,99191.77
2023-01-31T21:58:59.428Z,99184.79
2023-01-31T22:01:30.094Z,99179.33
2023-01-31T22:03:59.444Z,99171.48
2023-01-31T22:06:31.684Z,99167.94
2023-01-31T22:09:01.499Z,99166.09
2023-01-31T22:11:35.400Z,99163.94
2023-01-31T22:14:09.137Z,99162.87
2023-01-31T22:16:37.332Z,99159.27
2023-01-31T22:19:05.491Z,99157.48
2023-01-31T22:21:36.239Z,99149.81
2023-01-31T22:24:06.791Z,99149.50
2023-01-31T22:26:40.942Z,99144.20
2023-01-31T22:29:12.148Z,99136.52
2023-01-31T22:31:40.649Z,99134.65
2023-01-31T22:34:13.038Z,99126.63
2023-01-31T22:36:41.488Z,99126.83
2023-01-31T22:39:13.309Z,99123.16
2023-01-31T22:41:42.402Z,99114.11
2023-01-31T22:44:10.944Z,99115.85
2023-01-31T22:46:38.927Z,99110.67
2023-01-31T22:49:07.126Z,99095.49
2023-01-31T22:51:35.212Z,99096.55
2023-01-31T22:54:03.465Z,99093.95
2023-01-31T22:56:32.865Z,99097.86
2023-01-31T22:59:03.602Z,99087.80
2023-01-31T23:01:35.145Z,99083.90
2023-01-31T23:04:07.272Z,99085.25
2023-01-31T23:06:35.897Z,99086.58
2023-01-31T23:09:04.345Z,99086.48
2023-01-31T23:11:32.555Z,99080.45
2023-01-31T23:14:00.711Z,99074.27
2023-01-31T23:16:47.260Z,99076.96
2023-01-31T23:19:16.498Z,99071.27
2023-01-31T23:21:44.835Z,99069.37
2023-01-31T23:24:14.974Z,99070.35
2023-01-31T23:26:43.633Z,99069.45
2023-01-31T23:29:12.112Z,99067.16
2023-01-31T23:31:40.334Z,99060.48
2023-01-31T23:34:08.505Z,99060.81
2023-01-31T23:36:37.552Z,99052.77
2023-01-31T23:39:05.940Z,99050.38
2023-01-31T23:41:34.017Z,99051.00
2023-01-31T23:44:01.964Z,99050.45
2023-01-31T23:46:29.843Z,99053.31
2023-01-31T23:48:57.824Z,99052.77
2023-01-31T23:51:28.591Z,99045.41
2023-01-31T23:53:57.177Z,99047.25
2023-01-31T23:56:26.650Z,99048.08
2023-01-31T23:58:54.577Z,99043.15
